Etusivu
METAR-TAF:

METAR-TAF

Lentoasemat :

Shanghai Pudongin kansainvälinen lentoasema

Shanghai-Pudong, Kiina

Leveyspiiri: 31-07N, Pituuspiiri: 121-46E, korkeus merenpinnasta: 4 m

Tämänhetkinen sää

Tämä raportti tehtiin 24 minuuttia sitten, kello 17.00 UTC
Tuuli 8 kn idästä/koillisesta
Lämpötila 11°C
Kosteus 94%
Ilmanpaine 1020 hPa
Näkyvyys 10 km tai enemmän
Hajonneita pilviä 1100 ft:n korkeudessa

METAR: ZSPD 301700Z 06004MPS 9999 BKN011 11/10 Q1020 NOSIG

Aika: 01:24 (17:24 UTC)

Sääennuste

Tämä raportti tehtiin 8 tuntia ja 21 minuuttia sitten, kello 09.03 UTC
Ennuste voimassa 30. päivästä klo 12 UTC - 31. päivään klo 12 UTC
Tuuli 8 kn idästä
Näkyvyys: 6000 m
Hajonneita pilviä 1000 ft:n korkeudessa
Pilvistä 3300 ft:n korkeudessa

TAF: ZSPD 300903Z 3012/3112 08004MPS 6000 BKN010 OVC033 TX14/3106Z TN10/3021Z

Säähavainnot ja -ennusteet yli 4000 lentoasemalta (METAR- ja TAF-raportit).

Käytössä olevat sääasemat on merkitty karttaan keltaisilla ja punaisilla pisteillä.

Aseta hiiri pisteen päälle nähdäksesi sääaseman nimen.

Klikkaa sitten nähdäksesi säähavainnot ja -ennusteet.

Kartan vaihtaminen: klikkaa mustalla rastilla varustettuja vihreitä pisteitä, niin voit zoomata sisään; viivalla varustettua vihreää pistettä, niin voit zoomata ulos tai vihreitä nuolia, niin pääset viereisille kartoille.


METAR-TAF: